Time;durP1;ratioP1;P1;durP2;ratioP2;P2;SDS_P1;SDS_P2;PMS_P1;PMS_P2;Temp;Humidity;BMP_temperature;BMP_pressure;BME280_temperature;BME280_humidity;BME280_pressure;Samples;Min_cycle;Max_cycle;Signal;HPM_P1;HPM_P2
2021/08/21 00:00:04;;;;;;;1.75;1.17;;;;;;;17.50;82.89;100583.72;5048708;28;20055;-85
2021/08/21 00:02:33;;;;;;;1.55;0.40;;;;;;;17.48;82.78;100589.72;5061463;28;20053;-85
2021/08/21 00:05:00;;;;;;;2.15;0.50;;;;;;;17.49;82.98;100582.13;5066027;28;20098;-86
2021/08/21 00:07:27;;;;;;;1.33;0.32;;;;;;;17.45;82.90;100596.09;5065935;28;20075;-85
2021/08/21 00:09:54;;;;;;;0.75;0.30;;;;;;;17.43;82.95;100595.69;5047340;28;20052;-86
2021/08/21 00:12:21;;;;;;;3.22;0.47;;;;;;;17.45;82.89;100593.28;5047904;28;20125;-85
2021/08/21 00:14:48;;;;;;;1.30;0.45;;;;;;;17.50;82.71;100600.53;5066687;28;20059;-86
2021/08/21 00:17:15;;;;;;;0.90;0.30;;;;;;;17.52;82.77;100603.72;5048351;28;20036;-86
2021/08/21 00:19:43;;;;;;;0.40;0.30;;;;;;;17.53;82.50;100597.75;5047570;28;20037;-86
2021/08/21 00:22:10;;;;;;;0.93;0.40;;;;;;;17.56;82.58;100596.97;5074342;28;20033;-86
2021/08/21 00:24:36;;;;;;;2.40;0.60;;;;;;;17.57;82.75;100594.97;5074020;28;20123;-86
2021/08/21 00:27:03;;;;;;;0.80;0.73;;;;;;;17.53;82.47;100594.94;5060528;28;20040;-85
2021/08/21 00:29:31;;;;;;;1.30;0.85;;;;;;;17.48;82.21;100600.91;5074742;28;20048;-87
2021/08/21 00:31:58;;;;;;;3.83;1.20;;;;;;;17.45;81.69;100598.88;5067695;28;20041;-85
2021/08/21 00:34:25;;;;;;;6.35;1.63;;;;;;;17.37;81.27;100597.25;5070117;28;20415;-85
2021/08/21 00:36:52;;;;;;;5.57;1.75;;;;;;;17.30;80.82;100593.63;5063382;28;20043;-86
2021/08/21 00:39:18;;;;;;;1.13;0.90;;;;;;;17.28;80.75;100593.25;5052918;28;20502;-86
2021/08/21 00:41:45;;;;;;;1.65;1.30;;;;;;;17.24;80.34;100592.41;5063362;28;20043;-85
2021/08/21 00:44:12;;;;;;;3.95;1.23;;;;;;;17.22;80.24;100598.41;5074176;28;20047;-85
2021/08/21 00:47:05;;;;;;;3.00;1.15;;;;;;;17.16;79.84;100601.97;5068254;28;20128;-85
2021/08/21 00:49:36;;;;;;;5.05;1.10;;;;;;;17.14;79.76;100605.16;5042342;28;20051;-85
2021/08/21 00:52:05;;;;;;;4.60;1.38;;;;;;;17.16;79.89;100602.78;5074030;28;20131;-86
2021/08/21 00:54:32;;;;;;;1.58;1.10;;;;;;;17.15;79.86;100601.19;5081141;28;20829;-85
2021/08/21 00:57:03;;;;;;;4.70;1.58;;;;;;;17.13;79.69;100606.34;5070798;28;20080;-85
2021/08/21 00:59:35;;;;;;;2.80;1.30;;;;;;;17.10;79.60;100609.97;5072399;28;20135;-84
2021/08/21 01:02:04;;;;;;;3.83;1.27;;;;;;;17.04;79.46;100597.53;5072005;28;20079;-84
2021/08/21 01:04:33;;;;;;;5.70;1.75;;;;;;;17.01;79.51;100606.72;5069941;28;20123;-85
2021/08/21 01:07:06;;;;;;;1.83;1.20;;;;;;;16.96;79.44;100621.06;5073011;28;20032;-84
2021/08/21 01:09:36;;;;;;;6.85;1.48;;;;;;;16.92;79.11;100609.84;5072882;28;20480;-85
2021/08/21 01:12:05;;;;;;;3.35;1.63;;;;;;;16.89;79.06;100609.84;5072306;28;20041;-84
2021/08/21 01:14:32;;;;;;;3.15;1.85;;;;;;;16.91;78.96;100611.06;5074755;28;20036;-86
2021/08/21 01:16:59;;;;;;;6.00;1.60;;;;;;;16.92;78.39;100604.25;5069549;28;20045;-84
2021/08/21 01:19:30;;;;;;;1.92;1.30;;;;;;;16.94;78.09;100609.47;5055754;28;20140;-85
2021/08/21 01:21:57;;;;;;;1.77;1.20;;;;;;;16.95;78.03;100603.47;5076420;28;20045;-85
2021/08/21 01:24:24;;;;;;;4.50;1.55;;;;;;;16.94;78.22;100609.47;5057065;28;20095;-85
2021/08/21 01:27:00;;;;;;;4.18;1.65;;;;;;;16.90;77.78;100605.84;5074526;28;20395;-85
2021/08/21 01:29:27;;;;;;;2.90;1.65;;;;;;;16.87;77.72;100606.63;5085764;28;20122;-84
2021/08/21 01:31:54;;;;;;;2.42;1.77;;;;;;;16.88;77.92;100613.84;5076567;28;20488;-84
2021/08/21 01:34:21;;;;;;;3.97;1.63;;;;;;;16.88;77.67;100619.44;5055842;28;20047;-84
2021/08/21 01:36:50;;;;;;;5.75;1.60;;;;;;;16.85;77.58;100609.00;5074676;28;20416;-85
2021/08/21 01:39:18;;;;;;;3.03;1.63;;;;;;;16.85;77.52;100609.81;5080443;28;20075;-85
2021/08/21 01:41:46;;;;;;;3.05;1.48;;;;;;;16.85;77.38;100598.63;5084339;28;20460;-84
2021/08/21 01:44:15;;;;;;;3.80;1.60;;;;;;;16.83;77.49;100595.44;5079164;28;20047;-85
2021/08/21 01:46:46;;;;;;;2.72;1.35;;;;;;;16.86;77.67;100599.44;5055515;28;20646;-84
2021/08/21 01:49:15;;;;;;;3.47;1.52;;;;;;;16.84;77.43;100590.63;5081190;28;20038;-84
2021/08/21 01:51:45;;;;;;;5.05;1.88;;;;;;;16.81;77.70;100594.22;5086604;28;20130;-85
2021/08/21 01:54:22;;;;;;;4.85;1.85;;;;;;;16.79;77.72;100593.78;5078770;28;20048;-84
2021/08/21 01:56:52;;;;;;;6.05;1.98;;;;;;;16.77;77.76;100604.56;5072466;28;20415;-84
2021/08/21 01:59:25;;;;;;;3.92;2.20;;;;;;;16.74;77.60;100594.97;5084209;28;20044;-84
2021/08/21 02:01:53;;;;;;;3.28;1.45;;;;;;;16.70;77.79;100599.75;5079157;28;20128;-84
2021/08/21 02:04:21;;;;;;;4.43;1.50;;;;;;;16.67;78.17;100594.94;5089261;28;20433;-84
2021/08/21 02:06:49;;;;;;;4.43;1.60;;;;;;;16.66;78.40;100596.13;5059222;28;20051;-84
2021/08/21 02:09:22;;;;;;;3.92;2.38;;;;;;;16.67;78.40;100596.94;5039560;28;20410;-84
2021/08/21 02:11:51;;;;;;;5.95;1.70;;;;;;;16.65;78.76;100586.16;5072086;28;20230;-85
2021/08/21 02:14:19;;;;;;;9.77;4.65;;;;;;;16.66;78.83;100584.13;5072133;28;20142;-84
2021/08/21 02:16:54;;;;;;;11.83;7.10;;;;;;;16.67;78.90;100591.34;5070218;28;20036;-84
2021/08/21 02:19:23;;;;;;;10.90;5.30;;;;;;;16.64;78.93;100580.94;5067838;28;20377;-84
2021/08/21 02:21:52;;;;;;;15.73;8.30;;;;;;;16.64;79.40;100580.94;5063123;28;20044;-85
2021/08/21 02:24:24;;;;;;;13.77;6.30;;;;;;;16.64;79.49;100583.72;5061344;28;20138;-84
2021/08/21 02:26:53;;;;;;;13.95;7.32;;;;;;;16.64;79.74;100580.94;5075644;28;20047;-84
2021/08/21 02:29:20;;;;;;;13.10;5.47;;;;;;;16.61;79.79;100587.28;5085631;28;20075;-84
2021/08/21 02:31:47;;;;;;;9.48;4.97;;;;;;;16.61;80.15;100590.09;5086917;28;20040;-84
2021/08/21 02:34:14;;;;;;;6.43;3.08;;;;;;;16.64;79.94;100592.13;5074681;28;20040;-84
2021/08/21 02:36:42;;;;;;;6.25;4.15;;;;;;;16.64;79.79;100597.69;5077347;28;20032;-84
2021/08/21 02:39:09;;;;;;;7.95;3.90;;;;;;;16.60;80.03;100586.50;5073937;28;20464;-85
2021/08/21 02:41:37;;;;;;;7.07;3.40;;;;;;;16.60;80.10;100594.09;5066028;28;20051;-84
2021/08/21 02:44:04;;;;;;;4.63;2.60;;;;;;;16.56;80.29;100584.88;5072377;28;20049;-84
2021/08/21 02:46:31;;;;;;;5.85;2.00;;;;;;;16.52;80.25;100584.81;5076527;28;20479;-84
2021/08/21 02:49:02;;;;;;;6.60;2.30;;;;;;;16.51;80.17;100588.00;5068731;28;20037;-83
2021/08/21 02:51:29;;;;;;;4.25;1.98;;;;;;;16.49;80.12;100579.22;5078694;28;20050;-84
2021/08/21 02:53:55;;;;;;;6.55;2.03;;;;;;;16.47;80.26;100581.59;5074124;28;20485;-84
2021/08/21 02:56:22;;;;;;;8.35;2.20;;;;;;;16.42;80.09;100580.75;5057986;28;20051;-85
2021/08/21 02:58:49;;;;;;;5.57;2.13;;;;;;;16.37;80.17;100572.75;5073777;28;20059;-84
2021/08/21 03:01:15;;;;;;;4.15;1.92;;;;;;;16.34;80.31;100579.09;5059559;28;20132;-84
2021/08/21 03:03:42;;;;;;;3.72;2.17;;;;;;;16.35;80.39;100582.72;5089579;28;20044;-84
2021/08/21 03:06:09;;;;;;;3.28;2.22;;;;;;;16.35;80.48;100580.72;5084377;28;20043;-85
2021/08/21 03:08:36;;;;;;;5.97;1.95;;;;;;;16.37;80.34;100581.13;5077845;28;20095;-84
2021/08/21 03:11:03;;;;;;;9.32;2.90;;;;;;;16.35;80.21;100568.75;5054495;28;20051;-85
2021/08/21 03:13:30;;;;;;;9.35;2.28;;;;;;;16.34;80.27;100579.09;5075908;28;20151;-84
2021/08/21 03:15:56;;;;;;;4.00;2.15;;;;;;;16.34;79.98;100570.72;5037324;28;20040;-87
2021/08/21 03:18:24;;;;;;;5.05;2.28;;;;;;;16.32;80.09;100570.31;5062860;28;20040;-85
2021/08/21 03:20:50;;;;;;;2.95;1.73;;;;;;;16.33;79.83;100566.34;5033952;28;20044;-85
2021/08/21 03:23:17;;;;;;;2.58;1.88;;;;;;;16.31;79.88;100568.69;5044720;28;20463;-84
2021/08/21 03:25:44;;;;;;;7.70;2.35;;;;;;;16.31;79.89;100563.13;5052937;28;20476;-84
2021/08/21 03:28:10;;;;;;;7.10;2.60;;;;;;;16.30;79.83;100564.31;5067647;28;20048;-86
2021/08/21 03:30:37;;;;;;;4.47;2.20;;;;;;;16.27;79.99;100562.31;5073798;28;20047;-84
2021/08/21 03:33:08;;;;;;;7.35;2.72;;;;;;;16.26;79.93;100560.69;5038204;28;20049;-85
2021/08/21 03:35:35;;;;;;;6.63;2.15;;;;;;;16.27;79.94;100562.31;5073644;28;20036;-84
2021/08/21 03:38:03;;;;;;;4.28;1.77;;;;;;;16.27;79.92;100556.72;5074486;28;20064;-83
2021/08/21 03:40:30;;;;;;;4.53;1.92;;;;;;;16.30;79.87;100555.13;5074272;28;20123;-84
2021/08/21 03:42:57;;;;;;;5.90;2.45;;;;;;;16.30;79.88;100560.72;5075536;28;20475;-85
2021/08/21 03:45:23;;;;;;;4.57;2.50;;;;;;;16.30;79.98;100553.16;5072321;28;20552;-84
2021/08/21 03:47:50;;;;;;;4.05;2.30;;;;;;;16.29;80.19;100559.91;5064284;28;20094;-84
2021/08/21 03:50:17;;;;;;;7.80;2.42;;;;;;;16.32;80.12;100558.34;5073082;28;20424;-83
2021/08/21 03:52:44;;;;;;;3.53;1.77;;;;;;;16.33;80.28;100560.75;5074870;28;20115;-84
2021/08/21 03:55:11;;;;;;;3.10;1.63;;;;;;;16.35;80.20;100550.00;5073854;28;20048;-85
2021/08/21 03:57:38;;;;;;;4.32;2.22;;;;;;;16.35;80.30;100550.00;5059137;28;20123;-85
2021/08/21 04:00:05;;;;;;;7.88;2.22;;;;;;;16.39;80.19;100548.00;5073345;28;20123;-84
2021/08/21 04:02:32;;;;;;;6.65;1.90;;;;;;;16.39;80.42;100553.59;5068215;28;20055;-84
2021/08/21 04:04:59;;;;;;;5.80;2.20;;;;;;;16.40;80.24;100555.22;5069398;28;20060;-84
2021/08/21 04:07:26;;;;;;;5.53;2.15;;;;;;;16.39;80.21;100550.78;5072920;28;20050;-84
2021/08/21 04:09:53;;;;;;;3.60;1.95;;;;;;;16.36;80.41;100548.78;5074333;28;20040;-84
2021/08/21 04:12:20;;;;;;;5.65;2.17;;;;;;;16.37;80.41;100549.59;5073799;28;20044;-84
2021/08/21 04:14:47;;;;;;;6.97;2.13;;;;;;;16.35;80.24;100547.19;5060905;28;20058;-84
2021/08/21 04:17:14;;;;;;;3.20;1.80;;;;;;;16.32;80.46;100549.94;5072715;28;20369;-84
2021/08/21 04:19:41;;;;;;;5.28;2.30;;;;;;;16.31;80.66;100546.34;5055130;28;20099;-84
2021/08/21 04:22:07;;;;;;;6.68;1.77;;;;;;;16.30;81.11;100546.75;5057290;28;20172;-85
2021/08/21 04:24:34;;;;;;;4.47;2.42;;;;;;;16.27;81.41;100551.13;5074622;28;20116;-84
2021/08/21 04:27:01;;;;;;;8.77;2.10;;;;;;;16.26;81.82;100549.50;5072034;28;20796;-83
2021/08/21 04:29:27;;;;;;;4.72;2.33;;;;;;;16.24;82.25;100551.09;5057582;28;20040;-84
2021/08/21 04:31:54;;;;;;;6.00;2.78;;;;;;;16.23;82.71;100560.69;5070584;28;20399;-85
2021/08/21 04:34:21;;;;;;;11.85;2.72;;;;;;;16.19;83.16;100549.47;5074253;28;20036;-85
2021/08/21 04:36:48;;;;;;;5.72;2.35;;;;;;;16.18;83.53;100552.63;5072509;28;20568;-85
2021/08/21 04:39:19;;;;;;;5.43;1.92;;;;;;;16.17;84.13;100557.44;5074399;28;20079;-84
2021/08/21 04:41:46;;;;;;;4.63;1.65;;;;;;;16.17;84.38;100551.03;5073275;28;20484;-85
2021/08/21 04:44:13;;;;;;;8.50;2.10;;;;;;;16.15;84.52;100548.63;5073069;28;20059;-85
2021/08/21 04:46:40;;;;;;;5.88;1.98;;;;;;;16.16;84.71;100550.25;5064992;28;20044;-84
2021/08/21 04:49:06;;;;;;;9.55;2.55;;;;;;;16.14;85.10;100551.81;5073419;28;20112;-85
2021/08/21 04:51:33;;;;;;;8.10;1.77;;;;;;;16.13;85.29;100550.19;5056969;28;20041;-84
2021/08/21 04:54:00;;;;;;;5.82;1.40;;;;;;;16.14;85.37;100552.63;5073248;28;20412;-84
2021/08/21 04:56:26;;;;;;;3.47;1.52;;;;;;;16.15;85.33;100536.69;5070509;28;20124;-84
2021/08/21 04:58:53;;;;;;;5.38;1.58;;;;;;;16.17;85.60;100540.69;5039153;28;20579;-84
2021/08/21 05:01:21;;;;;;;3.47;1.23;;;;;;;16.15;85.72;100543.03;5072212;28;20044;-84
2021/08/21 05:03:48;;;;;;;4.90;2.10;;;;;;;16.14;85.76;100541.47;5072848;28;20385;-84
2021/08/21 05:06:14;;;;;;;5.03;2.03;;;;;;;16.17;86.04;100545.47;5061111;28;20097;-84
2021/08/21 05:08:42;;;;;;;5.38;1.95;;;;;;;16.18;86.14;100541.47;5074398;28;20044;-85
2021/08/21 05:11:10;;;;;;;5.38;2.63;;;;;;;16.19;86.15;100551.44;5072031;28;20047;-85
2021/08/21 05:13:37;;;;;;;3.85;2.20;;;;;;;16.18;86.34;100541.47;5072921;28;20052;-84
2021/08/21 05:16:04;;;;;;;8.05;2.33;;;;;;;16.19;86.52;100552.25;5071275;28;20179;-84
2021/08/21 05:18:37;;;;;;;4.15;2.10;;;;;;;16.17;86.78;100546.28;5055647;28;20542;-84
2021/08/21 05:21:13;;;;;;;3.13;1.75;;;;;;;16.16;86.75;100547.44;5051591;28;20052;-83
2021/08/21 05:23:41;;;;;;;5.15;2.20;;;;;;;16.15;86.83;100548.63;5057511;28;20437;-83
2021/08/21 05:26:07;;;;;;;4.35;1.77;;;;;;;16.16;86.91;100550.25;5069870;28;20114;-84
2021/08/21 05:28:36;;;;;;;5.82;2.10;;;;;;;16.15;87.33;100551.41;5061582;28;20400;-87
2021/08/21 05:31:03;;;;;;;3.38;1.67;;;;;;;16.17;87.17;100548.25;5071263;28;20040;-83
2021/08/21 05:33:30;;;;;;;2.40;1.60;;;;;;;16.17;87.21;100549.06;5063483;28;20484;-84
2021/08/21 05:35:57;;;;;;;6.53;2.70;;;;;;;16.17;87.44;100546.28;5060664;28;20066;-84
2021/08/21 05:38:23;;;;;;;3.95;2.00;;;;;;;16.15;87.64;100551.41;5072217;28;20033;-84
2021/08/21 05:40:50;;;;;;;4.32;1.17;;;;;;;16.15;87.56;100551.41;5072326;28;20037;-85
2021/08/21 05:43:17;;;;;;;2.35;0.95;;;;;;;16.12;87.71;100555.00;5065227;28;20056;-84
2021/08/21 05:45:44;;;;;;;3.55;0.80;;;;;;;16.09;87.58;100550.19;5061452;28;20134;-83
2021/08/21 05:48:11;;;;;;;8.57;1.27;;;;;;;16.08;87.90;100548.56;5071033;28;20058;-84
2021/08/21 05:50:38;;;;;;;1.98;0.82;;;;;;;16.09;87.79;100553.00;5056160;28;20050;-83
2021/08/21 05:53:04;;;;;;;5.78;1.55;;;;;;;16.08;88.07;100559.75;5071858;28;20041;-84
2021/08/21 05:55:32;;;;;;;5.32;1.50;;;;;;;16.07;87.90;100552.56;5058449;28;20502;-84
2021/08/21 05:57:59;;;;;;;7.05;1.02;;;;;;;16.09;88.16;100550.19;5054135;28;20148;-84
2021/08/21 06:00:26;;;;;;;4.93;1.77;;;;;;;16.08;88.14;100553.34;5071399;28;20040;-84
2021/08/21 06:02:53;;;;;;;9.45;1.45;;;;;;;16.04;88.47;100549.75;5069821;28;20041;-84
2021/08/21 06:05:20;;;;;;;3.55;1.23;;;;;;;16.00;88.68;100551.69;5071148;28;20047;-84
2021/08/21 06:07:47;;;;;;;1.63;1.05;;;;;;;15.98;88.73;100554.06;5071369;28;20128;-83
2021/08/21 06:10:15;;;;;;;3.28;0.65;;;;;;;15.96;88.55;100556.47;5071276;28;20444;-84
2021/08/21 06:12:41;;;;;;;8.95;2.30;;;;;;;15.91;88.70;100560.41;5054512;28;20041;-83
2021/08/21 06:15:09;;;;;;;4.40;1.13;;;;;;;15.88;88.79;100554.78;5074958;28;20079;-85
2021/08/21 06:17:35;;;;;;;9.68;2.47;;;;;;;15.87;88.69;100548.41;5078309;28;20510;-84
2021/08/21 06:20:04;;;;;;;4.65;0.77;;;;;;;15.88;88.74;100555.59;5072921;28;20040;-85
2021/08/21 06:22:31;;;;;;;6.72;1.40;;;;;;;15.86;89.06;100557.19;5069392;28;20032;-84
2021/08/21 06:24:58;;;;;;;7.78;1.50;;;;;;;15.85;89.01;100553.56;5084164;28;20480;-84
2021/08/21 06:27:25;;;;;;;6.35;1.30;;;;;;;15.84;89.08;100554.75;5073893;28;20407;-84
2021/08/21 06:29:51;;;;;;;10.50;1.73;;;;;;;15.87;89.14;100551.19;5079940;28;20036;-84
2021/08/21 06:32:21;;;;;;;17.67;2.58;;;;;;;15.86;89.22;100557.19;5080608;28;20032;-84
2021/08/21 06:34:48;;;;;;;8.00;1.63;;;;;;;15.86;89.13;100557.19;5078026;28;20069;-84
2021/08/21 06:37:14;;;;;;;8.85;1.88;;;;;;;15.85;89.32;100556.38;5075867;28;20567;-85
2021/08/21 06:39:41;;;;;;;6.35;1.80;;;;;;;15.87;89.64;100558.75;5080738;28;20054;-84
2021/08/21 06:42:08;;;;;;;7.95;1.75;;;;;;;15.88;89.28;100561.19;5073948;28;20060;-84
2021/08/21 06:44:34;;;;;;;10.38;1.65;;;;;;;15.89;89.31;100559.97;5072818;28;20037;-85
2021/08/21 06:47:01;;;;;;;13.10;2.38;;;;;;;15.90;89.35;100552.41;5065836;28;20036;-84
2021/08/21 06:49:28;;;;;;;8.68;2.08;;;;;;;15.90;89.43;100553.22;5062464;28;20041;-84
2021/08/21 06:51:59;;;;;;;9.88;2.08;;;;;;;15.92;89.52;100550.03;5074319;28;20052;-85
2021/08/21 06:54:26;;;;;;;11.52;2.42;;;;;;;15.90;89.30;100547.63;5032452;28;20135;-86
2021/08/21 06:56:53;;;;;;;4.43;2.00;;;;;;;15.91;89.41;100549.25;5065764;28;20048;-85
2021/08/21 06:59:20;;;;;;;15.40;2.38;;;;;;;15.93;89.35;100562.81;5072569;28;20041;-85
2021/08/21 07:01:47;;;;;;;4.28;1.77;;;;;;;15.95;89.42;100555.66;5072658;28;20052;-84
2021/08/21 07:04:15;;;;;;;6.18;1.70;;;;;;;15.97;89.26;100558.84;5078278;28;20052;-84
2021/08/21 07:06:41;;;;;;;9.10;2.05;;;;;;;15.97;89.27;100570.03;5054871;28;20049;-84
2021/08/21 07:09:08;;;;;;;7.20;1.63;;;;;;;15.95;89.35;100564.03;5063382;28;20076;-84
2021/08/21 07:11:35;;;;;;;5.00;2.00;;;;;;;15.95;89.43;100566.81;5086380;28;20044;-84
2021/08/21 07:14:02;;;;;;;4.97;1.23;;;;;;;15.94;89.46;100565.22;5064474;28;20097;-87
2021/08/21 07:16:28;;;;;;;11.20;2.25;;;;;;;15.92;89.51;100562.00;5067748;28;20123;-85
2021/08/21 07:18:55;;;;;;;3.35;1.30;;;;;;;15.93;89.38;100569.22;5068965;28;20116;-85
2021/08/21 07:21:23;;;;;;;7.15;2.03;;;;;;;15.94;89.60;100565.22;5068344;28;20055;-85
2021/08/21 07:23:50;;;;;;;3.65;1.77;;;;;;;15.92;89.42;100566.78;5039590;28;20040;-85
2021/08/21 07:26:17;;;;;;;7.30;2.20;;;;;;;15.89;89.62;100565.56;5069204;28;20048;-85
2021/08/21 07:28:43;;;;;;;6.78;3.30;;;;;;;15.89;89.75;100573.94;5064797;28;20045;-84
2021/08/21 07:31:10;;;;;;;4.30;2.60;;;;;;;15.91;89.63;100566.00;5051026;28;21787;-85
2021/08/21 07:33:37;;;;;;;5.05;2.63;;;;;;;15.94;89.58;100573.59;5069942;28;20033;-85
2021/08/21 07:36:07;;;;;;;10.85;4.45;;;;;;;15.95;89.70;100586.38;5053744;28;20039;-85
2021/08/21 07:38:42;;;;;;;6.78;3.05;;;;;;;15.97;89.80;100577.59;5071532;28;20040;-86
2021/08/21 07:41:12;;;;;;;4.60;2.53;;;;;;;15.98;89.86;100573.63;5052702;28;20170;-87
2021/08/21 07:43:40;;;;;;;7.55;2.22;;;;;;;16.00;89.76;100577.63;5063591;28;20141;-87
2021/08/21 07:46:07;;;;;;;2.88;2.00;;;;;;;16.03;89.78;100574.06;5071406;28;20033;-87
2021/08/21 07:48:33;;;;;;;1.83;1.38;;;;;;;16.07;89.86;100572.09;5070903;28;20086;-86
2021/08/21 07:51:00;;;;;;;3.08;1.77;;;;;;;16.11;89.57;100574.94;5051286;28;20052;-85
2021/08/21 07:53:27;;;;;;;5.40;1.90;;;;;;;16.15;89.57;100576.56;5054146;28;20103;-84
2021/08/21 07:55:54;;;;;;;2.90;1.77;;;;;;;16.21;89.58;100572.22;5067605;28;20039;-85
2021/08/21 07:58:21;;;;;;;5.50;1.40;;;;;;;16.27;89.69;100573.47;5070828;28;20049;-85
2021/08/21 08:00:47;;;;;;;5.35;1.27;;;;;;;16.32;89.46;100575.09;5069630;28;20438;-85
2021/08/21 08:03:15;;;;;;;3.90;1.80;;;;;;;16.35;89.46;100572.34;5051895;28;20045;-86
2021/08/21 08:05:42;;;;;;;3.80;1.42;;;;;;;16.36;89.77;100576.72;5067060;28;20068;-85
2021/08/21 08:08:10;;;;;;;5.43;1.85;;;;;;;16.40;89.27;100587.94;5053943;28;20120;-85
2021/08/21 08:10:36;;;;;;;4.43;1.50;;;;;;;16.45;89.27;100580.00;5058437;28;20041;-88
2021/08/21 08:13:04;;;;;;;4.88;2.63;;;;;;;16.51;89.20;100588.00;5051866;28;20496;-85
2021/08/21 08:15:31;;;;;;;3.90;1.00;;;;;;;16.53;89.41;100585.66;5091695;28;20075;-85
2021/08/21 08:17:58;;;;;;;2.63;1.10;;;;;;;16.53;89.16;100585.66;5072947;28;20514;-84
2021/08/21 08:20:26;;;;;;;3.80;1.25;;;;;;;16.56;89.04;100579.28;5073692;28;20496;-85
2021/08/21 08:22:56;;;;;;;2.67;1.10;;;;;;;16.58;88.89;100577.69;5073811;28;20511;-85
2021/08/21 08:25:23;;;;;;;2.97;1.08;;;;;;;16.62;88.81;100580.53;5073144;28;20045;-85
2021/08/21 08:27:50;;;;;;;2.65;1.17;;;;;;;16.66;88.80;100584.13;5073756;28;20079;-84
2021/08/21 08:30:18;;;;;;;2.42;0.95;;;;;;;16.69;88.56;100584.16;5072943;28;20496;-85
2021/08/21 08:32:45;;;;;;;4.88;1.67;;;;;;;16.71;88.73;100575.38;5073294;28;20119;-84
2021/08/21 08:35:12;;;;;;;4.13;1.88;;;;;;;16.74;88.80;100575.41;5056343;28;20039;-86
2021/08/21 08:37:42;;;;;;;4.22;1.27;;;;;;;16.78;88.74;100570.66;5071835;28;20048;-85
2021/08/21 08:40:11;;;;;;;4.25;1.35;;;;;;;16.81;88.62;100583.81;5053129;28;20044;-85
2021/08/21 08:42:42;;;;;;;2.55;1.08;;;;;;;16.81;88.50;100575.44;5072663;28;20463;-85
2021/08/21 08:45:12;;;;;;;2.63;1.35;;;;;;;16.86;88.53;100571.47;5072729;28;20480;-84
2021/08/21 08:47:39;;;;;;;2.35;0.95;;;;;;;16.89;88.37;100579.09;5073155;28;20045;-84
2021/08/21 08:50:08;;;;;;;3.05;0.90;;;;;;;16.93;88.48;100572.31;5073416;28;20183;-85
2021/08/21 08:52:35;;;;;;;1.60;1.13;;;;;;;16.97;88.16;100581.50;5068011;28;20135;-85
2021/08/21 08:55:03;;;;;;;3.42;1.30;;;;;;;17.03;88.19;100570.75;5071011;28;20143;-85
2021/08/21 08:57:40;;;;;;;3.63;1.10;;;;;;;17.10;88.09;100570.81;5071336;28;20044;-84
2021/08/21 09:00:14;;;;;;;2.05;0.70;;;;;;;17.13;88.02;100575.59;5073734;28;20063;-84
2021/08/21 09:02:47;;;;;;;2.47;0.57;;;;;;;17.15;87.82;100567.63;5072837;28;20484;-86
2021/08/21 09:05:16;;;;;;;0.90;0.85;;;;;;;17.19;87.67;100568.41;5072779;28;20067;-85
2021/08/21 09:07:54;;;;;;;1.42;0.60;;;;;;;17.25;87.86;100566.84;5056051;28;20048;-84
2021/08/21 09:10:26;;;;;;;4.10;0.77;;;;;;;17.38;87.64;100573.69;5055151;28;20067;-84
2021/08/21 09:13:13;;;;;;;0.30;0.30;;;;;;;17.46;87.10;100572.50;5055091;28;20080;-85
2021/08/21 09:15:45;;;;;;;1.83;0.50;;;;;;;17.53;87.26;100582.94;5067858;28;20082;-87
2021/08/21 09:18:13;;;;;;;1.05;0.32;;;;;;;17.59;87.20;100576.56;5071844;28;20041;-87
2021/08/21 09:20:49;;;;;;;0.40;0.22;;;;;;;17.73;87.05;100587.00;5054357;28;20056;-86
2021/08/21 09:23:22;;;;;;;0.68;0.30;;;;;;;17.79;86.72;100579.03;5073003;28;20062;-85
2021/08/21 09:25:52;;;;;;;0.25;0.22;;;;;;;17.81;86.31;100585.81;5072024;28;20064;-85
2021/08/21 09:28:23;;;;;;;0.30;0.20;;;;;;;17.85;86.24;100583.00;5072086;28;20102;-91
2021/08/21 09:31:07;;;;;;;0.30;0.28;;;;;;;17.90;85.86;100569.41;5056269;28;20654;-93
2021/08/21 09:33:36;;;;;;;0.35;0.10;;;;;;;17.93;85.89;100568.63;5057068;28;20128;-94
2021/08/21 09:36:03;;;;;;;1.13;0.32;;;;;;;18.01;85.89;100570.22;5039158;28;20049;-92
2021/08/21 09:38:32;;;;;;;0.28;0.20;;;;;;;18.05;85.67;100570.22;5055046;28;20143;-92
2021/08/21 09:41:03;;;;;;;0.80;0.40;;;;;;;18.08;85.30;100572.25;5055788;28;20488;-88
2021/08/21 09:43:38;;;;;;;1.08;0.20;;;;;;;18.14;85.21;100579.03;5072467;28;20051;-87
2021/08/21 09:46:21;;;;;;;2.20;0.30;;;;;;;18.12;84.33;100575.81;5068995;28;20127;-85
2021/08/21 09:49:03;;;;;;;1.00;0.30;;;;;;;18.14;84.23;100573.41;5063503;28;20044;-85
2021/08/21 09:51:37;;;;;;;1.80;0.75;;;;;;;18.27;84.81;100574.63;5071789;28;20043;-86
2021/08/21 09:54:07;;;;;;;2.05;0.55;;;;;;;18.37;84.30;100575.81;5071926;28;20079;-86
2021/08/21 09:56:36;;;;;;;2.05;0.90;;;;;;;18.42;84.52;100567.81;5053056;28;20123;-83
2021/08/21 09:59:04;;;;;;;0.82;0.40;;;;;;;18.44;84.82;100581.41;5071362;28;20037;-85
2021/08/21 10:01:32;;;;;;;2.45;0.50;;;;;;;18.42;84.55;100584.63;5056460;28;20091;-85
2021/08/21 10:04:00;;;;;;;3.50;0.40;;;;;;;18.38;84.14;100572.59;5034095;28;20143;-85
2021/08/21 10:06:28;;;;;;;0.63;0.50;;;;;;;18.41;84.15;100577.41;5034897;28;20443;-85
2021/08/21 10:09:09;;;;;;;0.93;0.63;;;;;;;18.39;83.71;100582.63;5073224;28;20123;-84
2021/08/21 10:11:36;;;;;;;2.95;0.60;;;;;;;18.33;83.74;100583.41;5041531;28;20080;-85
2021/08/21 10:14:06;;;;;;;2.03;0.80;;;;;;;18.27;83.38;100594.22;5055240;28;20507;-84
2021/08/21 10:16:33;;;;;;;1.20;0.55;;;;;;;18.24;83.42;100584.63;5058992;28;20051;-86
2021/08/21 10:19:00;;;;;;;1.90;0.60;;;;;;;18.19;83.30;100584.22;5063045;28;20124;-85
2021/08/21 10:21:27;;;;;;;0.80;0.50;;;;;;;18.17;83.21;100583.81;5060418;28;20344;-85
2021/08/21 10:23:56;;;;;;;2.42;0.70;;;;;;;18.21;83.31;100581.84;5062183;28;20045;-87
2021/08/21 10:26:31;;;;;;;2.45;0.77;;;;;;;18.22;83.37;100591.84;5033165;28;20484;-83
2021/08/21 10:29:00;;;;;;;2.92;1.25;;;;;;;18.23;83.28;100585.84;5060115;28;20044;-87
2021/08/21 10:31:33;;;;;;;5.32;1.00;;;;;;;18.25;83.38;100591.03;5050648;28;20044;-85
2021/08/21 10:34:00;;;;;;;2.92;1.52;;;;;;;18.28;83.30;100590.25;5066599;28;20071;-85
2021/08/21 10:36:50;;;;;;;2.17;0.98;;;;;;;18.35;82.95;100595.06;5045404;28;20500;-84
2021/08/21 10:39:22;;;;;;;2.17;1.20;;;;;;;18.46;83.68;100588.22;5056657;28;20404;-84
2021/08/21 10:41:51;;;;;;;6.20;2.58;;;;;;;18.58;83.42;100582.25;5052577;28;20495;-83
2021/08/21 10:44:41;;;;;;;3.78;1.70;;;;;;;18.71;83.32;100585.41;5059824;28;20049;-84
2021/08/21 10:47:29;;;;;;;3.50;1.30;;;;;;;18.75;83.33;100583.38;5047580;28;20043;-83
2021/08/21 10:49:57;;;;;;;5.72;1.50;;;;;;;18.75;83.25;100589.78;5059956;28;20106;-84
2021/08/21 10:52:53;;;;;;;4.75;1.30;;;;;;;18.79;82.77;100582.19;5038209;28;20063;-85
2021/08/21 10:55:40;;;;;;;4.53;1.23;;;;;;;18.81;83.04;100590.19;5055463;28;20476;-84
2021/08/21 10:58:10;;;;;;;1.98;1.17;;;;;;;18.82;82.69;100586.19;5054552;28;20045;-84
2021/08/21 11:00:39;;;;;;;3.20;1.20;;;;;;;18.78;82.41;100580.56;5059296;28;20173;-82
2021/08/21 11:03:38;;;;;;;2.28;0.77;;;;;;;18.78;82.19;100579.78;5063911;28;20123;-85
2021/08/21 11:06:07;;;;;;;2.83;1.02;;;;;;;18.74;82.07;100591.00;5064758;28;20060;-83
2021/08/21 11:08:40;;;;;;;3.42;1.30;;;;;;;18.73;82.00;100583.81;5046994;28;20746;-87
2021/08/21 11:11:30;;;;;;;6.05;1.58;;;;;;;18.74;81.99;100593.78;5063605;28;20064;-94
2021/08/21 11:14:00;;;;;;;3.50;1.20;;;;;;;18.72;82.01;100584.19;5065733;28;20126;-91
2021/08/21 11:16:53;;;;;;;5.30;1.85;;;;;;;18.67;81.97;100585.41;5049844;28;20167;-92
2021/08/21 11:19:39;;;;;;;;;;;;;;;18.66;81.74;100589.44;5051113;28;20412;-88
2021/08/21 11:22:13;;;;;;;6.53;1.70;;;;;;;18.75;82.06;100586.19;5061685;28;20395;-88
2021/08/21 11:25:06;;;;;;;4.28;1.80;;;;;;;18.74;81.43;100599.41;5059815;28;20120;-88
2021/08/21 11:27:35;;;;;;;3.08;1.90;;;;;;;18.79;81.68;100592.59;5050315;28;20049;-89
2021/08/21 11:30:10;;;;;;;5.50;2.78;;;;;;;18.87;81.86;100590.56;5056682;28;20060;-88
2021/08/21 11:32:46;;;;;;;6.00;1.83;;;;;;;18.93;81.16;100594.56;5047721;28;20037;-88